createdAt,value
2024-02-27T00:00:00.927Z,3.90
2024-02-27T00:01:00.939Z,4.10
2024-02-27T00:02:00.892Z,4.10
2024-02-27T00:03:00.884Z,4.60
2024-02-27T00:04:21.864Z,4.10
2024-02-27T00:05:00.839Z,4.40
2024-02-27T00:06:00.913Z,4.30
2024-02-27T00:07:00.880Z,4.20
2024-02-27T00:08:00.858Z,4.20
2024-02-27T00:09:00.843Z,4.10
2024-02-27T00:10:21.787Z,4.00
2024-02-27T00:11:00.787Z,4.20
2024-02-27T00:12:00.785Z,4.30
2024-02-27T00:13:00.757Z,4.20
2024-02-27T00:14:00.803Z,4.10
2024-02-27T00:15:00.757Z,4.10
2024-02-27T00:16:21.714Z,4.10
2024-02-27T00:17:00.715Z,4.30
2024-02-27T00:18:00.723Z,4.20
2024-02-27T00:19:00.776Z,4.40
2024-02-27T00:20:00.755Z,4.50
2024-02-27T00:21:00.681Z,4.50
2024-02-27T00:22:21.653Z,4.60
2024-02-27T00:23:00.620Z,4.50
2024-02-27T00:24:00.689Z,4.60
2024-02-27T00:25:00.600Z,4.80
2024-02-27T00:26:00.588Z,5.00
2024-02-27T00:27:00.624Z,4.60
2024-02-27T00:28:21.572Z,5.10
2024-02-27T00:29:00.554Z,4.90
2024-02-27T00:30:00.777Z,5.30
2024-02-27T00:31:00.547Z,5.10
2024-02-27T00:32:00.598Z,5.10
2024-02-27T00:33:00.606Z,5.30
2024-02-27T00:34:21.603Z,5.20
2024-02-27T00:35:00.606Z,5.30
2024-02-27T00:36:00.566Z,5.40
2024-02-27T00:37:00.524Z,5.40
2024-02-27T00:38:00.477Z,5.00
2024-02-27T00:39:00.479Z,5.50
2024-02-27T00:40:21.420Z,5.60
2024-02-27T00:41:00.407Z,5.60
2024-02-27T00:42:00.432Z,5.70
2024-02-27T00:43:00.377Z,5.60
2024-02-27T00:44:00.393Z,5.70
2024-02-27T00:45:00.458Z,5.80
2024-02-27T00:46:21.401Z,5.80
2024-02-27T00:47:00.353Z,5.90
2024-02-27T00:48:00.407Z,5.70
2024-02-27T00:49:00.362Z,5.70
2024-02-27T00:50:00.300Z,6.50
2024-02-27T00:51:00.313Z,6.10
2024-02-27T00:52:21.279Z,6.10
2024-02-27T00:53:00.255Z,6.30
2024-02-27T00:54:00.299Z,6.10
2024-02-27T00:55:00.249Z,6.20
2024-02-27T00:56:00.232Z,6.40
2024-02-27T00:57:00.250Z,6.30
2024-02-27T00:58:21.211Z,6.30
2024-02-27T00:59:00.204Z,6.10
2024-02-27T01:00:00.255Z,6.40
2024-02-27T01:01:00.218Z,6.60
2024-02-27T01:02:00.323Z,6.30
2024-02-27T01:03:00.175Z,6.30
2024-02-27T01:04:21.143Z,6.40
2024-02-27T01:05:00.330Z,6.40
2024-02-27T01:06:00.293Z,6.80
2024-02-27T01:07:00.206Z,6.40
2024-02-27T01:08:00.135Z,6.50
2024-02-27T01:09:00.096Z,6.20
2024-02-27T01:10:21.061Z,6.40
2024-02-27T01:11:00.048Z,6.50
2024-02-27T01:12:00.100Z,6.50
2024-02-27T01:13:00.024Z,6.40
2024-02-27T01:14:00.007Z,6.60
2024-02-27T01:15:00.023Z,6.20
2024-02-27T01:16:20.989Z,6.60
2024-02-27T01:16:59.975Z,6.10
2024-02-27T01:18:00.154Z,6.50
2024-02-27T01:19:00.093Z,6.50
2024-02-27T01:19:59.996Z,6.30
2024-02-27T01:20:59.930Z,6.40
2024-02-27T01:22:20.915Z,6.50
2024-02-27T01:22:59.921Z,6.60
2024-02-27T01:23:59.899Z,6.30
2024-02-27T01:24:59.872Z,6.30
2024-02-27T01:25:59.862Z,6.40
2024-02-27T01:26:59.904Z,6.20
2024-02-27T01:28:20.846Z,6.50
2024-02-27T01:28:59.833Z,6.10
2024-02-27T01:29:59.873Z,6.20
2024-02-27T01:30:59.815Z,6.30
2024-02-27T01:31:59.787Z,6.00
2024-02-27T01:32:59.890Z,5.80
2024-02-27T01:34:20.881Z,5.60
2024-02-27T01:35:00.010Z,5.90
2024-02-27T01:35:59.895Z,5.90
2024-02-27T01:36:59.726Z,6.00
2024-02-27T01:37:59.724Z,6.50
2024-02-27T01:38:59.725Z,6.10
2024-02-27T01:40:20.699Z,5.80
2024-02-27T01:40:59.709Z,6.20
2024-02-27T01:41:59.716Z,5.90
2024-02-27T01:42:59.668Z,5.80
2024-02-27T01:43:59.656Z,5.90
2024-02-27T01:44:59.679Z,5.50
2024-02-27T01:46:20.632Z,5.50
2024-02-27T01:46:59.859Z,5.40
2024-02-27T01:47:59.666Z,5.80
2024-02-27T01:48:59.774Z,5.70
2024-02-27T01:49:59.621Z,5.80
2024-02-27T01:50:59.614Z,5.50
2024-02-27T01:52:20.545Z,5.60
2024-02-27T01:52:59.564Z,5.60
2024-02-27T01:53:59.625Z,5.20
2024-02-27T01:54:59.501Z,5.30
2024-02-27T01:55:59.482Z,5.30
2024-02-27T01:56:59.572Z,5.40
2024-02-27T01:58:20.467Z,5.40
2024-02-27T01:58:59.462Z,5.40
2024-02-27T01:59:59.481Z,5.30
2024-02-27T02:00:59.526Z,5.10
2024-02-27T02:01:59.411Z,5.40
2024-02-27T02:02:59.501Z,5.20
2024-02-27T02:04:20.640Z,4.90
2024-02-27T02:04:59.394Z,5.10
2024-02-27T02:05:59.481Z,5.20
2024-02-27T02:06:59.376Z,5.20
2024-02-27T02:07:59.339Z,5.20
2024-02-27T02:08:59.343Z,5.40
2024-02-27T02:10:20.317Z,5.10
2024-02-27T02:10:59.324Z,4.70
2024-02-27T02:11:59.320Z,4.50
2024-02-27T02:12:59.281Z,4.80
2024-02-27T02:13:59.301Z,4.90
2024-02-27T02:14:59.313Z,4.80
2024-02-27T02:16:20.305Z,4.80
2024-02-27T02:16:59.264Z,4.70
2024-02-27T02:17:59.265Z,4.70
2024-02-27T02:18:59.306Z,5.00
2024-02-27T02:19:59.204Z,4.50
2024-02-27T02:20:59.237Z,4.50
2024-02-27T02:22:20.221Z,4.60
2024-02-27T02:22:59.153Z,4.80
2024-02-27T02:23:59.152Z,5.00
2024-02-27T02:24:59.134Z,4.90
2024-02-27T02:25:59.133Z,4.90
2024-02-27T02:26:59.187Z,5.10
2024-02-27T02:28:20.095Z,5.00
2024-02-27T02:28:59.091Z,4.90
2024-02-27T02:29:59.073Z,4.90
2024-02-27T02:30:59.049Z,5.20
2024-02-27T02:31:59.043Z,4.90
2024-02-27T02:32:59.111Z,5.00
2024-02-27T02:34:20.093Z,4.80
2024-02-27T02:34:59.088Z,4.90
2024-02-27T02:35:59.018Z,4.90
2024-02-27T02:36:58.979Z,4.90
2024-02-27T02:37:59.050Z,5.20
2024-02-27T02:38:58.986Z,5.00
2024-02-27T02:40:19.940Z,4.90
2024-02-27T02:40:58.932Z,5.20
2024-02-27T02:41:58.988Z,5.20
2024-02-27T02:42:58.896Z,4.90
2024-02-27T02:43:58.896Z,5.20
2024-02-27T02:44:58.895Z,5.10
2024-02-27T02:46:19.874Z,4.80
2024-02-27T02:46:58.851Z,4.90
2024-02-27T02:47:59.003Z,5.00
2024-02-27T02:48:59.532Z,5.20
2024-02-27T02:49:58.886Z,5.20
2024-02-27T02:50:58.843Z,5.20
2024-02-27T02:52:19.793Z,5.30
2024-02-27T02:52:58.837Z,5.40
2024-02-27T02:53:58.834Z,5.30
2024-02-27T02:54:58.757Z,5.20
2024-02-27T02:55:58.760Z,5.40
2024-02-27T02:56:58.756Z,5.10
2024-02-27T02:58:19.728Z,5.10
2024-02-27T02:58:58.700Z,5.00
2024-02-27T02:59:58.738Z,5.10
2024-02-27T03:00:58.758Z,5.30
2024-02-27T03:01:58.668Z,5.50
2024-02-27T03:02:58.657Z,5.40
2024-02-27T03:04:19.708Z,5.40
2024-02-27T03:04:58.688Z,5.40
2024-02-27T03:05:58.725Z,5.60
2024-02-27T03:06:58.786Z,5.60
2024-02-27T03:07:58.598Z,5.60
2024-02-27T03:08:58.615Z,5.50
2024-02-27T03:10:19.612Z,5.50
2024-02-27T03:10:58.602Z,6.00
2024-02-27T03:11:58.599Z,5.70
2024-02-27T03:12:58.541Z,5.70
2024-02-27T03:13:58.526Z,5.90
2024-02-27T03:14:58.535Z,5.50
2024-02-27T03:16:19.505Z,5.60
2024-02-27T03:16:58.476Z,5.60
2024-02-27T03:17:58.631Z,5.40
2024-02-27T03:18:58.567Z,5.70
2024-02-27T03:19:58.553Z,5.80
2024-02-27T03:20:58.438Z,5.70
2024-02-27T03:22:19.454Z,5.60
2024-02-27T03:22:58.396Z,5.40
2024-02-27T03:23:58.409Z,5.50
2024-02-27T03:24:58.367Z,5.90
2024-02-27T03:25:58.423Z,5.70
2024-02-27T03:26:58.378Z,5.80
2024-02-27T03:28:19.342Z,5.80
2024-02-27T03:28:58.322Z,5.70
2024-02-27T03:29:58.404Z,5.60
2024-02-27T03:30:58.293Z,5.70
2024-02-27T03:31:58.287Z,5.70
2024-02-27T03:32:58.413Z,5.70
2024-02-27T03:34:19.520Z,5.70
2024-02-27T03:34:58.401Z,5.60
2024-02-27T03:35:58.244Z,5.90
2024-02-27T03:36:58.214Z,5.80
2024-02-27T03:37:58.211Z,5.90
2024-02-27T03:38:58.246Z,6.00
2024-02-27T03:40:19.195Z,5.70
2024-02-27T03:40:58.167Z,5.90
2024-02-27T03:41:58.299Z,6.20
2024-02-27T03:42:58.307Z,6.20
2024-02-27T03:43:58.133Z,6.00
2024-02-27T03:44:58.168Z,6.20
2024-02-27T03:46:19.132Z,6.10
2024-02-27T03:46:58.087Z,6.10
2024-02-27T03:47:58.223Z,6.30
2024-02-27T03:48:58.218Z,6.50
2024-02-27T03:49:58.171Z,6.20
2024-02-27T03:50:58.077Z,6.70
2024-02-27T03:52:19.035Z,6.40
2024-02-27T03:52:58.016Z,6.80
2024-02-27T03:53:58.038Z,6.70
2024-02-27T03:54:57.996Z,6.60
2024-02-27T03:55:57.982Z,6.60
2024-02-27T03:56:57.979Z,6.80
2024-02-27T03:58:19.072Z,6.80
2024-02-27T03:58:57.946Z,6.70
2024-02-27T03:59:57.968Z,6.80
2024-02-27T04:00:58.030Z,7.10
2024-02-27T04:01:57.905Z,7.00
2024-02-27T04:02:57.905Z,7.60
2024-02-27T04:04:19.032Z,7.30
2024-02-27T04:04:57.965Z,7.40
2024-02-27T04:05:57.910Z,7.20
2024-02-27T04:06:57.953Z,7.20
2024-02-27T04:07:57.844Z,7.30
2024-02-27T04:08:57.875Z,7.40
2024-02-27T04:10:18.810Z,7.50
2024-02-27T04:10:57.804Z,8.10
2024-02-27T04:11:57.821Z,7.40
2024-02-27T04:12:57.769Z,7.80
2024-02-27T04:13:57.805Z,8.00
2024-02-27T04:14:57.755Z,8.50
2024-02-27T04:16:18.733Z,7.90
2024-02-27T04:16:57.719Z,7.70
2024-02-27T04:17:57.729Z,8.20
2024-02-27T04:18:57.799Z,8.00
2024-02-27T04:19:57.771Z,7.90
2024-02-27T04:20:57.785Z,8.40
2024-02-27T04:22:18.660Z,7.90
2024-02-27T04:22:57.637Z,8.70
2024-02-27T04:23:57.651Z,8.50
2024-02-27T04:24:57.617Z,9.00
2024-02-27T04:25:57.667Z,8.50
2024-02-27T04:26:57.596Z,8.50
2024-02-27T04:28:18.587Z,8.90
2024-02-27T04:28:57.556Z,8.80
2024-02-27T04:29:57.611Z,9.00
2024-02-27T04:30:57.531Z,9.10
2024-02-27T04:31:57.525Z,9.00
2024-02-27T04:32:57.666Z,9.20
2024-02-27T04:34:18.597Z,9.20
2024-02-27T04:34:57.482Z,9.70
2024-02-27T04:35:57.476Z,9.10
2024-02-27T04:36:57.460Z,9.60
2024-02-27T04:37:57.458Z,9.30
2024-02-27T04:38:57.514Z,10.90
2024-02-27T04:40:18.428Z,10.10
2024-02-27T04:40:57.401Z,10.30
2024-02-27T04:41:57.428Z,10.10
2024-02-27T04:42:57.435Z,10.10
2024-02-27T04:43:57.371Z,9.80
2024-02-27T04:44:57.421Z,10.00
2024-02-27T04:46:18.405Z,10.90
2024-02-27T04:46:57.329Z,10.60
2024-02-27T04:47:57.473Z,10.50
2024-02-27T04:48:57.372Z,10.30
2024-02-27T04:49:57.334Z,11.20
2024-02-27T04:50:57.301Z,10.30
2024-02-27T04:52:18.280Z,11.00
2024-02-27T04:52:57.268Z,11.00
2024-02-27T04:53:57.274Z,11.00
2024-02-27T04:54:57.272Z,11.60
2024-02-27T04:55:57.222Z,11.50
2024-02-27T04:56:57.256Z,11.90
2024-02-27T04:58:18.212Z,12.00
2024-02-27T04:58:57.175Z,12.20
2024-02-27T04:59:57.264Z,12.40
2024-02-27T05:00:57.164Z,12.10
2024-02-27T05:01:57.196Z,12.10
2024-02-27T05:02:57.176Z,12.70
2024-02-27T05:04:18.211Z,12.40
2024-02-27T05:04:57.109Z,12.40
2024-02-27T05:05:57.139Z,12.70
2024-02-27T05:06:57.170Z,12.70
2024-02-27T05:07:57.067Z,13.50
2024-02-27T05:08:57.095Z,13.50
2024-02-27T05:10:18.049Z,13.70
2024-02-27T05:10:57.032Z,13.40
2024-02-27T05:11:57.041Z,14.00
2024-02-27T05:12:57.000Z,13.90
2024-02-27T05:13:56.995Z,13.70
2024-02-27T05:14:56.988Z,14.50
2024-02-27T05:16:17.978Z,15.00
2024-02-27T05:16:56.978Z,15.10
2024-02-27T05:17:57.223Z,14.90
2024-02-27T05:18:57.009Z,15.00
2024-02-27T05:19:56.910Z,15.30
2024-02-27T05:20:56.941Z,16.20
2024-02-27T05:22:17.890Z,16.40
2024-02-27T05:22:56.867Z,15.70
2024-02-27T05:23:56.881Z,16.50
2024-02-27T05:24:56.883Z,16.50
2024-02-27T05:25:56.838Z,17.10
2024-02-27T05:26:56.961Z,17.60
2024-02-27T05:28:17.813Z,18.10
2024-02-27T05:28:56.807Z,17.90
2024-02-27T05:29:56.902Z,17.70
2024-02-27T05:30:56.769Z,18.00
2024-02-27T05:31:56.813Z,18.60
2024-02-27T05:32:56.827Z,18.40
2024-02-27T05:34:17.855Z,18.70
2024-02-27T05:34:56.793Z,19.20
2024-02-27T05:35:56.768Z,19.80
2024-02-27T05:36:56.708Z,19.40
2024-02-27T05:37:56.684Z,18.50
2024-02-27T05:38:56.681Z,18.60
2024-02-27T05:40:17.660Z,18.90
2024-02-27T05:40:56.638Z,19.10
2024-02-27T05:41:56.713Z,18.40
2024-02-27T05:42:56.618Z,18.90
2024-02-27T05:43:56.608Z,19.70
2024-02-27T05:44:56.647Z,20.50
2024-02-27T05:46:17.575Z,20.30
2024-02-27T05:46:56.640Z,20.40
2024-02-27T05:47:56.664Z,20.90
2024-02-27T05:48:56.694Z,20.30
2024-02-27T05:49:56.683Z,20.10
2024-02-27T05:50:56.534Z,20.00
2024-02-27T05:52:17.503Z,20.80
2024-02-27T05:52:56.492Z,20.50
2024-02-27T05:53:56.505Z,21.10
2024-02-27T05:54:56.468Z,22.00
2024-02-27T05:55:56.438Z,21.80
2024-02-27T05:56:56.472Z,21.80
2024-02-27T05:58:17.446Z,22.30
2024-02-27T05:58:56.408Z,21.40
2024-02-27T05:59:56.390Z,22.40
2024-02-27T06:00:56.551Z,22.70
2024-02-27T06:01:56.372Z,22.90
2024-02-27T06:02:56.416Z,22.60
2024-02-27T06:04:17.525Z,23.50
2024-02-27T06:04:56.323Z,23.60
2024-02-27T06:05:56.406Z,23.70
2024-02-27T06:06:56.452Z,24.30
2024-02-27T06:07:56.288Z,24.80
2024-02-27T06:08:56.267Z,25.20
2024-02-27T06:10:17.263Z,25.00
2024-02-27T06:10:56.282Z,24.80
2024-02-27T06:11:58.804Z,24.60
2024-02-27T06:12:56.216Z,25.10
2024-02-27T06:13:56.228Z,25.80
2024-02-27T06:14:56.194Z,24.60
2024-02-27T06:16:17.192Z,24.90
2024-02-27T06:16:56.169Z,24.30
2024-02-27T06:17:56.198Z,24.30
2024-02-27T06:18:56.184Z,24.80
2024-02-27T06:19:56.162Z,25.00
2024-02-27T06:20:56.317Z,24.80
2024-02-27T06:22:17.182Z,26.10
2024-02-27T06:22:56.119Z,26.30
2024-02-27T06:23:56.077Z,25.50
2024-02-27T06:24:56.065Z,25.40
2024-02-27T06:25:56.112Z,27.10
2024-02-27T06:26:56.057Z,26.80
2024-02-27T06:28:17.037Z,27.40
2024-02-27T06:28:56.012Z,27.30
2024-02-27T06:29:55.996Z,27.40
2024-02-27T06:30:56.028Z,26.90
2024-02-27T06:31:56.063Z,28.00
2024-02-27T06:32:56.002Z,26.10
2024-02-27T06:34:17.031Z,27.40
2024-02-27T06:34:56.021Z,27.80
2024-02-27T06:35:55.927Z,29.60
2024-02-27T06:36:55.907Z,29.00
2024-02-27T06:37:55.948Z,28.80
2024-02-27T06:38:55.888Z,29.10
2024-02-27T06:40:16.885Z,29.80
2024-02-27T06:40:55.856Z,29.10
2024-02-27T06:41:55.846Z,30.80
2024-02-27T06:42:55.846Z,31.00
2024-02-27T06:43:55.814Z,30.40
2024-02-27T06:44:55.808Z,31.40
2024-02-27T06:46:16.796Z,31.40
2024-02-27T06:46:55.766Z,31.20
2024-02-27T06:47:55.883Z,32.40
2024-02-27T06:49:03.821Z,33.00
2024-02-27T06:49:55.784Z,33.00
2024-02-27T06:50:55.725Z,32.70
2024-02-27T06:52:16.717Z,33.40
2024-02-27T06:52:55.706Z,33.80
2024-02-27T06:53:55.737Z,34.40
2024-02-27T06:54:55.682Z,33.10
2024-02-27T06:55:55.667Z,32.70
2024-02-27T06:56:55.659Z,32.40
2024-02-27T06:58:16.804Z,32.50
2024-02-27T06:58:55.616Z,31.40
2024-02-27T06:59:55.607Z,32.80
2024-02-27T07:00:55.667Z,32.80
2024-02-27T07:01:55.587Z,33.50
2024-02-27T07:02:55.568Z,33.70
2024-02-27T07:04:16.587Z,33.70
2024-02-27T07:04:55.553Z,33.30
2024-02-27T07:05:55.573Z,33.10
2024-02-27T07:06:55.605Z,33.00
2024-02-27T07:07:55.508Z,33.10
2024-02-27T07:08:55.516Z,33.60
2024-02-27T07:10:16.531Z,32.30
2024-02-27T07:10:55.495Z,33.80
2024-02-27T07:11:55.454Z,32.10
2024-02-27T07:12:55.439Z,34.10
2024-02-27T07:13:55.589Z,33.50
2024-02-27T07:14:55.452Z,32.50
2024-02-27T07:16:16.405Z,32.70
2024-02-27T07:16:55.385Z,33.10
2024-02-27T07:17:55.455Z,33.00
2024-02-27T07:18:55.528Z,32.20
2024-02-27T07:19:55.404Z,32.40
2024-02-27T07:20:55.330Z,32.30
2024-02-27T07:22:16.337Z,32.70
2024-02-27T07:22:55.304Z,33.30
2024-02-27T07:23:55.296Z,33.10
2024-02-27T07:24:55.345Z,33.10
2024-02-27T07:25:55.326Z,33.10
2024-02-27T07:26:55.266Z,32.80
2024-02-27T07:28:20.925Z,31.50
2024-02-27T07:28:55.229Z,31.80
2024-02-27T07:29:55.221Z,31.40
2024-02-27T07:30:55.215Z,31.80
2024-02-27T07:31:55.195Z,31.00
2024-02-27T07:32:55.229Z,31.90
2024-02-27T07:34:16.264Z,31.70
2024-02-27T07:34:55.199Z,32.40
2024-02-27T07:35:55.141Z,31.30
2024-02-27T07:36:55.133Z,30.20
2024-02-27T07:37:55.110Z,33.00
2024-02-27T07:38:55.105Z,31.50
2024-02-27T07:40:16.103Z,32.20
2024-02-27T07:40:55.135Z,31.80
2024-02-27T07:41:55.137Z,31.40
2024-02-27T07:42:55.072Z,31.90
2024-02-27T07:43:55.086Z,32.50
2024-02-27T07:44:55.044Z,32.70
2024-02-27T07:46:16.020Z,31.80
2024-02-27T07:46:54.997Z,32.10
2024-02-27T07:47:55.032Z,32.50
2024-02-27T07:48:55.019Z,32.00
2024-02-27T07:49:55.876Z,32.30
2024-02-27T07:50:55.586Z,32.80
2024-02-27T07:52:15.991Z,31.40
2024-02-27T07:52:54.946Z,32.40
2024-02-27T07:53:54.925Z,31.50
2024-02-27T07:54:54.896Z,31.20
2024-02-27T07:55:54.888Z,33.10
2024-02-27T07:56:54.891Z,32.90
2024-02-27T07:58:15.922Z,33.60
2024-02-27T07:58:54.854Z,32.70
2024-02-27T07:59:54.838Z,32.30
2024-02-27T08:00:54.895Z,31.60
2024-02-27T08:01:54.828Z,33.40
2024-02-27T08:02:54.856Z,32.00
2024-02-27T08:04:15.968Z,31.30
2024-02-27T08:04:54.779Z,31.80
2024-02-27T08:05:54.808Z,32.70
2024-02-27T08:06:54.764Z,31.50
2024-02-27T08:07:54.749Z,32.20
2024-02-27T08:08:54.801Z,31.40
2024-02-27T08:10:15.741Z,31.00
2024-02-27T08:10:54.696Z,30.80
2024-02-27T08:11:54.697Z,28.80
2024-02-27T08:12:54.671Z,29.20
2024-02-27T08:13:54.709Z,30.60
2024-02-27T08:14:54.647Z,29.80
2024-02-27T08:16:15.641Z,31.50
2024-02-27T08:16:54.618Z,31.80
2024-02-27T08:17:54.644Z,30.40
2024-02-27T08:18:54.668Z,32.20
2024-02-27T08:19:54.651Z,31.00
2024-02-27T08:20:56.183Z,30.90
2024-02-27T08:22:15.565Z,29.90
2024-02-27T08:22:54.543Z,30.10
2024-02-27T08:23:54.541Z,31.00
2024-02-27T08:24:54.549Z,30.90
2024-02-27T08:25:54.512Z,30.10
2024-02-27T08:26:57.103Z,30.20
2024-02-27T08:28:15.536Z,31.00
2024-02-27T08:28:54.488Z,30.20
2024-02-27T08:29:54.536Z,31.30
2024-02-27T08:30:54.515Z,28.80
2024-02-27T08:31:54.458Z,30.10
2024-02-27T08:32:55.584Z,29.70
2024-02-27T08:34:15.638Z,30.80
2024-02-27T08:34:54.497Z,29.80
2024-02-27T08:35:54.379Z,29.70
2024-02-27T08:36:54.397Z,28.80
2024-02-27T08:37:54.349Z,28.80
2024-02-27T08:38:54.355Z,28.10
2024-02-27T08:40:15.330Z,27.60
2024-02-27T08:40:54.318Z,28.20
2024-02-27T08:41:54.308Z,28.40
2024-02-27T08:42:54.297Z,28.20
2024-02-27T08:43:54.276Z,27.30
2024-02-27T08:44:54.266Z,28.00
2024-02-27T08:46:15.321Z,28.10
2024-02-27T08:46:54.251Z,28.30
2024-02-27T08:47:54.313Z,28.30
2024-02-27T08:48:54.399Z,27.50
2024-02-27T08:49:54.335Z,26.60
2024-02-27T08:50:54.194Z,27.10
2024-02-27T08:52:15.231Z,27.50
2024-02-27T08:52:54.175Z,28.00
2024-02-27T08:53:54.152Z,27.60
2024-02-27T08:54:54.158Z,26.30
2024-02-27T08:55:54.136Z,27.60
2024-02-27T08:56:54.134Z,27.00
2024-02-27T08:58:15.134Z,26.90
2024-02-27T08:58:54.099Z,26.80
2024-02-27T08:59:54.086Z,27.40
2024-02-27T09:00:54.170Z,26.80
2024-02-27T09:01:54.112Z,25.80
2024-02-27T09:02:54.074Z,26.10
2024-02-27T09:04:15.090Z,25.80
2024-02-27T09:04:54.028Z,25.30
2024-02-27T09:05:54.132Z,25.10
2024-02-27T09:06:54.265Z,25.60
2024-02-27T09:07:53.999Z,24.90
2024-02-27T09:08:54.022Z,25.70
2024-02-27T09:10:14.970Z,25.00
2024-02-27T09:10:54.117Z,25.20
2024-02-27T09:11:53.941Z,25.50
2024-02-27T09:12:54.000Z,25.00
2024-02-27T09:13:53.909Z,24.50
2024-02-27T09:14:53.905Z,24.00
2024-02-27T09:16:14.889Z,24.60
2024-02-27T09:16:53.904Z,25.40
2024-02-27T09:17:54.056Z,24.30
2024-02-27T09:18:54.158Z,25.00
2024-02-27T09:19:53.947Z,24.80
2024-02-27T09:20:53.917Z,23.80
2024-02-27T09:22:14.814Z,23.20
2024-02-27T09:22:53.811Z,24.10
2024-02-27T09:23:53.825Z,22.70
2024-02-27T09:24:53.780Z,23.20
2024-02-27T09:25:53.790Z,23.50
2024-02-27T09:26:53.757Z,23.00
2024-02-27T09:28:14.955Z,22.70
2024-02-27T09:28:53.762Z,21.90
2024-02-27T09:29:53.721Z,22.70
2024-02-27T09:30:53.786Z,21.20
2024-02-27T09:31:53.701Z,22.30
2024-02-27T09:32:53.750Z,21.80
2024-02-27T09:34:14.736Z,21.30
2024-02-27T09:34:53.809Z,21.30
2024-02-27T09:35:53.648Z,21.90
2024-02-27T09:36:53.692Z,22.00
2024-02-27T09:37:56.787Z,21.00
2024-02-27T09:38:53.618Z,21.10
2024-02-27T09:40:14.620Z,20.90
2024-02-27T09:40:53.591Z,20.40
2024-02-27T09:41:53.577Z,20.60
2024-02-27T09:42:53.656Z,20.40
2024-02-27T09:43:53.561Z,20.70
2024-02-27T09:44:53.554Z,20.70
2024-02-27T09:46:14.526Z,20.60
2024-02-27T09:46:53.534Z,20.90
2024-02-27T09:47:53.618Z,20.80
2024-02-27T09:48:53.583Z,19.90
2024-02-27T09:49:53.598Z,20.80
2024-02-27T09:50:53.468Z,20.00
2024-02-27T09:52:14.464Z,19.50
2024-02-27T09:52:53.651Z,19.70
2024-02-27T09:53:53.433Z,20.20
2024-02-27T09:54:53.437Z,19.50
2024-02-27T09:55:53.419Z,19.90
2024-02-27T09:56:53.407Z,19.80
2024-02-27T09:58:14.484Z,20.60
2024-02-27T09:58:53.405Z,20.40
2024-02-27T09:59:53.368Z,19.70
2024-02-27T10:00:53.477Z,19.90
2024-02-27T10:01:53.508Z,19.90
2024-02-27T10:02:53.411Z,19.60
2024-02-27T10:04:14.553Z,20.30
2024-02-27T10:04:53.315Z,20.30
2024-02-27T10:05:53.377Z,20.10
2024-02-27T10:06:53.428Z,20.30
2024-02-27T10:07:53.305Z,20.20
2024-02-27T10:08:53.275Z,20.70
2024-02-27T10:10:14.265Z,20.00
2024-02-27T10:10:53.256Z,19.80
2024-02-27T10:11:53.238Z,20.20
2024-02-27T10:12:53.215Z,19.90
2024-02-27T10:13:53.216Z,19.60
2024-02-27T10:14:53.189Z,19.40
2024-02-27T10:16:14.194Z,18.80
2024-02-27T10:16:53.488Z,19.20
2024-02-27T10:17:53.271Z,20.50
2024-02-27T10:18:53.273Z,18.90
2024-02-27T10:19:53.331Z,20.00
2024-02-27T10:20:53.129Z,19.50
2024-02-27T10:22:14.121Z,18.80
2024-02-27T10:22:53.093Z,18.70
2024-02-27T10:23:53.086Z,19.30
2024-02-27T10:24:53.070Z,19.80
2024-02-27T10:25:53.064Z,19.80
2024-02-27T10:26:53.054Z,18.80
2024-02-27T10:28:14.044Z,19.10
2024-02-27T10:28:53.027Z,19.20
2024-02-27T10:29:53.009Z,18.90
2024-02-27T10:30:52.996Z,18.60
2024-02-27T10:31:53.003Z,19.60
2024-02-27T10:32:53.088Z,19.60
2024-02-27T10:34:14.178Z,18.60
2024-02-27T10:34:53.262Z,18.80
2024-02-27T10:35:53.008Z,18.90
2024-02-27T10:36:53.005Z,18.00
2024-02-27T10:37:52.921Z,18.70
2024-02-27T10:38:52.903Z,17.80
2024-02-27T10:40:14.024Z,17.90
2024-02-27T10:40:52.885Z,17.90
2024-02-27T10:41:52.886Z,18.40
2024-02-27T10:42:52.885Z,17.80
2024-02-27T10:43:55.319Z,18.20
2024-02-27T10:44:52.840Z,18.20
2024-02-27T10:46:15.056Z,17.40
2024-02-27T10:46:52.845Z,17.80
2024-02-27T10:47:52.821Z,17.80
2024-02-27T10:48:52.942Z,17.40
2024-02-27T10:49:52.879Z,17.50
2024-02-27T10:50:52.795Z,17.00
2024-02-27T10:52:13.770Z,16.70
2024-02-27T10:52:52.755Z,16.40
2024-02-27T10:53:52.798Z,16.70
2024-02-27T10:54:52.761Z,16.10
2024-02-27T10:55:52.762Z,15.90
2024-02-27T10:56:52.720Z,16.20
2024-02-27T10:58:13.703Z,16.70
2024-02-27T10:58:52.677Z,16.20
2024-02-27T10:59:52.666Z,15.60
2024-02-27T11:00:52.708Z,15.90
2024-02-27T11:01:52.692Z,15.20
2024-02-27T11:02:52.707Z,15.30
2024-02-27T11:04:13.628Z,15.00
2024-02-27T11:04:52.717Z,15.50
2024-02-27T11:05:52.655Z,14.60
2024-02-27T11:06:52.726Z,14.70
2024-02-27T11:07:52.609Z,14.50
2024-02-27T11:08:52.559Z,14.40
2024-02-27T11:10:13.563Z,14.60
2024-02-27T11:10:52.588Z,14.50
2024-02-27T11:11:52.532Z,13.80
2024-02-27T11:12:52.557Z,14.50
2024-02-27T11:13:52.521Z,14.50
2024-02-27T11:14:52.490Z,14.90
2024-02-27T11:16:13.488Z,14.80
2024-02-27T11:16:52.486Z,14.20
2024-02-27T11:17:52.503Z,14.20
2024-02-27T11:18:52.535Z,13.70
2024-02-27T11:19:52.491Z,13.80
2024-02-27T11:20:52.419Z,13.80
2024-02-27T11:22:13.434Z,13.80
2024-02-27T11:22:52.410Z,13.50
2024-02-27T11:23:52.392Z,13.60
2024-02-27T11:24:52.450Z,13.10
2024-02-27T11:25:52.371Z,12.90
2024-02-27T11:26:52.365Z,12.50
2024-02-27T11:28:13.421Z,13.00
2024-02-27T11:28:52.332Z,12.30
2024-02-27T11:29:52.327Z,12.30
2024-02-27T11:30:52.362Z,11.80
2024-02-27T11:31:52.311Z,11.60
2024-02-27T11:32:52.354Z,11.40
2024-02-27T11:34:13.376Z,11.10
2024-02-27T11:34:52.584Z,11.20
2024-02-27T11:35:52.267Z,10.90
2024-02-27T11:36:52.327Z,10.70
2024-02-27T11:37:52.258Z,10.80
2024-02-27T11:38:52.245Z,10.30
2024-02-27T11:40:13.229Z,10.50
2024-02-27T11:40:52.295Z,10.60
2024-02-27T11:41:52.199Z,10.20
2024-02-27T11:42:52.208Z,10.20
2024-02-27T11:43:52.183Z,9.60
2024-02-27T11:44:52.165Z,10.30
2024-02-27T11:46:13.163Z,10.20
2024-02-27T11:46:52.173Z,10.00
2024-02-27T11:47:52.238Z,10.20
2024-02-27T11:48:52.250Z,10.00
2024-02-27T11:49:52.196Z,9.80
2024-02-27T11:50:52.104Z,9.90
2024-02-27T11:52:13.088Z,10.10
2024-02-27T11:52:52.077Z,9.80
2024-02-27T11:53:52.098Z,10.40
2024-02-27T11:54:52.078Z,9.90
2024-02-27T11:55:52.071Z,10.20
2024-02-27T11:56:52.067Z,9.70
2024-02-27T11:58:13.042Z,9.90
2024-02-27T11:58:52.005Z,10.10
2024-02-27T11:59:51.994Z,9.70
2024-02-27T12:00:52.462Z,9.50
2024-02-27T12:01:52.001Z,9.60
2024-02-27T12:02:51.969Z,9.80
2024-02-27T12:04:13.021Z,9.30
2024-02-27T12:04:52.081Z,9.20
2024-02-27T12:05:51.946Z,9.80
2024-02-27T12:06:52.410Z,9.50
2024-02-27T12:07:51.957Z,8.90
2024-02-27T12:08:51.896Z,9.00
2024-02-27T12:10:12.914Z,9.20
2024-02-27T12:10:51.895Z,9.70
2024-02-27T12:11:51.859Z,9.20
2024-02-27T12:12:51.886Z,9.40
2024-02-27T12:13:51.840Z,9.70
2024-02-27T12:14:51.904Z,9.00
2024-02-27T12:16:12.828Z,8.90
2024-02-27T12:16:51.824Z,8.90
2024-02-27T12:17:51.838Z,9.00
2024-02-27T12:18:51.895Z,9.40
2024-02-27T12:19:51.904Z,9.10
2024-02-27T12:20:51.789Z,8.70
2024-02-27T12:22:12.755Z,9.00
2024-02-27T12:22:51.764Z,9.50
2024-02-27T12:23:51.739Z,8.50
2024-02-27T12:24:51.798Z,8.90
2024-02-27T12:25:51.709Z,8.60
2024-02-27T12:26:51.810Z,8.70
2024-02-27T12:28:12.704Z,8.80
2024-02-27T12:28:51.747Z,9.10
2024-02-27T12:29:51.828Z,8.90
2024-02-27T12:30:51.840Z,8.30
2024-02-27T12:31:51.690Z,8.80
2024-02-27T12:32:51.749Z,8.50
2024-02-27T12:34:12.748Z,8.90
2024-02-27T12:34:51.771Z,8.60
2024-02-27T12:35:51.606Z,8.60
2024-02-27T12:36:51.636Z,8.50
2024-02-27T12:37:51.580Z,8.70
2024-02-27T12:38:51.570Z,8.60
2024-02-27T12:40:12.572Z,8.40
2024-02-27T12:40:51.552Z,8.50
2024-02-27T12:41:51.540Z,8.80
2024-02-27T12:42:51.591Z,8.60
2024-02-27T12:43:51.517Z,9.20
2024-02-27T12:44:51.511Z,8.80
2024-02-27T12:46:12.512Z,8.70
2024-02-27T12:46:51.489Z,8.70
2024-02-27T12:47:51.843Z,8.90
2024-02-27T12:48:51.671Z,8.40
2024-02-27T12:49:51.487Z,8.60
2024-02-27T12:50:51.486Z,8.90
2024-02-27T12:52:12.450Z,9.00
2024-02-27T12:52:58.746Z,8.70
2024-02-27T12:53:51.420Z,9.40
2024-02-27T12:54:51.441Z,9.00
2024-02-27T12:55:51.403Z,9.20
2024-02-27T12:56:51.379Z,9.00
2024-02-27T12:58:12.441Z,8.80
2024-02-27T12:58:51.362Z,8.80
2024-02-27T12:59:51.352Z,8.90
2024-02-27T13:00:51.453Z,8.70
2024-02-27T13:01:51.333Z,9.30
2024-02-27T13:02:51.324Z,9.20
2024-02-27T13:04:12.345Z,8.90